< < Back
Terminal Aerodrome Forecast


Current Version              Previous Versions:   1  2  3  4  5  6  7  8  9  

Terminal Aerodrome Forecast

082
FTUS44 KBMX 310535
TAFTCL
TAF
KTCL 310535Z 3106/0106 00000KT P6SM SKC
     FM311300 15002KT P6SM BKN050
     FM311500 23010KT P6SM VCTS BKN025CB
     FM312200 25008KT P6SM VCSH OVC100
     FM010200 00000KT P6SM BKN250=

Latest METAR

632
SAUS70 KWBC 311800 RRD
MTRTCL
METAR KTCL 311753Z 23005KT 10SM FEW041 26/16 A3003 RMK AO2 SLP166
T02560156 10256 20111 58016


USA.gov is the U.S. government's official web portal to all federal, state and local government web resources and services.